Time;durP1;ratioP1;P1;durP2;ratioP2;P2;SDS_P1;SDS_P2;PMS_P1;PMS_P2;Temp;Humidity;BMP_temperature;BMP_pressure;BME280_temperature;BME280_humidity;BME280_pressure;Samples;Min_cycle;Max_cycle;Signal;HPM_P1;HPM_P2
2021/03/20 00:00:23;;;;;;;9.95;6.47;;;-1.10;99.90;;;;;;5039071;28;20064;-78
2021/03/20 00:02:49;;;;;;;8.75;5.90;;;-1.10;99.90;;;;;;5016580;28;20344;-76
2021/03/20 00:05:15;;;;;;;7.65;5.43;;;-1.10;99.90;;;;;;5033389;28;20051;-75
2021/03/20 00:07:42;;;;;;;11.23;6.60;;;-1.20;99.90;;;;;;5023750;28;20040;-75
2021/03/20 00:10:12;;;;;;;7.78;5.68;;;-1.20;99.90;;;;;;5043731;28;20328;-75
2021/03/20 00:12:38;;;;;;;11.45;7.15;;;-1.20;99.90;;;;;;5042321;28;20039;-75
2021/03/20 00:15:06;;;;;;;12.68;6.65;;;-1.20;99.90;;;;;;5019377;28;20462;-71
2021/03/20 00:17:32;;;;;;;9.18;6.00;;;-1.30;99.90;;;;;;5026411;28;20042;-75
2021/03/20 00:19:58;;;;;;;8.85;5.40;;;-1.30;99.90;;;;;;5044672;28;20039;-77
2021/03/20 00:22:24;;;;;;;8.35;5.70;;;-1.30;99.90;;;;;;5029454;28;20124;-74
2021/03/20 00:24:50;;;;;;;;;;;-1.30;99.90;;;;;;5030897;28;20040;-75
2021/03/20 00:27:16;;;;;;;9.20;5.40;;;-1.30;99.90;;;;;;5030622;28;19917;-78
2021/03/20 00:29:42;;;;;;;10.25;6.30;;;-1.40;99.90;;;;;;5017469;28;20033;-73
2021/03/20 00:32:07;;;;;;;11.27;6.57;;;-1.40;99.90;;;;;;5017799;28;20052;-77
2021/03/20 00:34:33;;;;;;;11.00;6.03;;;-1.40;99.90;;;;;;5014230;28;20112;-75
2021/03/20 00:36:59;;;;;;;10.82;6.20;;;-1.40;99.90;;;;;;5038866;28;20037;-77
2021/03/20 00:39:25;;;;;;;;;;;-1.40;99.90;;;;;;5023921;28;20033;-76
2021/03/20 00:41:51;;;;;;;9.65;5.88;;;-1.50;99.90;;;;;;5030463;28;19916;-73
2021/03/20 00:44:17;;;;;;;8.95;6.50;;;-1.40;99.90;;;;;;5033217;28;20108;-74
2021/03/20 00:46:42;;;;;;;10.43;5.95;;;-1.50;99.90;;;;;;5035701;28;20052;-75
2021/03/20 00:49:08;;;;;;;10.65;6.80;;;-1.50;99.90;;;;;;5025085;28;20038;-77
2021/03/20 00:51:34;;;;;;;10.07;7.18;;;-1.50;99.90;;;;;;5022342;28;20041;-77
2021/03/20 00:54:00;;;;;;;10.68;7.32;;;-1.50;99.90;;;;;;5016728;28;20344;-75
2021/03/20 00:56:26;;;;;;;9.18;6.13;;;-1.50;99.90;;;;;;5039040;28;20486;-76
2021/03/20 00:58:52;;;;;;;11.57;6.32;;;-1.60;99.90;;;;;;5033441;28;20108;-76
2021/03/20 01:01:21;;;;;;;11.20;6.55;;;-1.60;99.90;;;;;;5022782;28;20029;-74
2021/03/20 01:03:49;;;;;;;10.70;5.97;;;-1.60;99.90;;;;;;5049353;28;20059;-75
2021/03/20 01:06:22;;;;;;;10.05;6.45;;;-1.60;99.90;;;;;;5047178;28;20461;-76
2021/03/20 01:08:48;;;;;;;9.40;6.35;;;-1.60;99.90;;;;;;5051535;28;20052;-75
2021/03/20 01:11:16;;;;;;;10.52;6.35;;;-1.60;99.90;;;;;;5027816;28;20905;-77
2021/03/20 01:13:42;;;;;;;11.13;6.65;;;-1.60;99.90;;;;;;5048675;28;20454;-75
2021/03/20 01:16:08;;;;;;;;;;;-1.70;99.90;;;;;;5030878;28;20065;-76
2021/03/20 01:18:36;;;;;;;8.95;6.32;;;-1.70;99.90;;;;;;5015877;28;20354;-76
2021/03/20 01:21:03;;;;;;;10.35;7.03;;;-1.70;99.90;;;;;;5035930;28;20191;-78
2021/03/20 01:23:29;;;;;;;12.75;7.82;;;-1.70;99.90;;;;;;5016457;28;20509;-74
2021/03/20 01:25:55;;;;;;;12.63;8.10;;;-1.70;99.90;;;;;;5048936;28;20037;-73
2021/03/20 01:28:25;;;;;;;9.70;6.45;;;-1.70;99.90;;;;;;5032626;28;20044;-76
2021/03/20 01:30:51;;;;;;;12.30;7.28;;;-1.70;99.90;;;;;;5014642;28;20035;-72
2021/03/20 01:33:17;;;;;;;10.82;6.95;;;-1.60;99.90;;;;;;5032365;28;20111;-77
2021/03/20 01:35:43;;;;;;;11.15;5.57;;;-1.50;99.90;;;;;;5041512;28;20045;-72
2021/03/20 01:38:09;;;;;;;9.10;6.38;;;-1.50;99.90;;;;;;5040879;28;20041;-78
2021/03/20 01:40:42;;;;;;;;;;;-1.50;99.90;;;;;;5050555;28;20041;-74
2021/03/20 01:43:12;;;;;;;12.73;6.45;;;-1.50;99.90;;;;;;5046727;28;19916;-74
2021/03/20 01:45:39;;;;;;;9.75;5.88;;;-1.60;99.90;;;;;;5056422;28;20052;-74
2021/03/20 01:48:13;;;;;;;12.18;6.85;;;-1.60;99.90;;;;;;5037551;28;20033;-73
2021/03/20 01:51:03;;;;;;;11.02;7.05;;;-1.70;99.90;;;;;;5048390;28;20388;-75
2021/03/20 01:53:51;;;;;;;13.85;7.03;;;-1.70;99.90;;;;;;5051168;28;20048;-78
2021/03/20 01:56:21;;;;;;;10.35;6.97;;;-1.80;99.90;;;;;;5044160;28;20478;-77
2021/03/20 01:58:50;;;;;;;13.95;7.10;;;-1.80;99.90;;;;;;5052097;28;20033;-74
2021/03/20 02:01:22;;;;;;;12.82;7.28;;;-1.80;99.90;;;;;;5051423;28;20037;-78
2021/03/20 02:03:48;;;;;;;11.02;7.28;;;-1.80;99.90;;;;;;5050583;28;20028;-77
2021/03/20 02:06:15;;;;;;;11.85;7.22;;;-1.80;99.90;;;;;;5032508;28;20140;-74
2021/03/20 02:08:43;;;;;;;9.70;6.40;;;-1.80;99.90;;;;;;5035940;28;20039;-75
2021/03/20 02:11:21;;;;;;;10.38;6.80;;;-1.80;99.90;;;;;;5045559;28;20036;-76
2021/03/20 02:14:01;;;;;;;10.73;7.32;;;-1.80;99.90;;;;;;5001848;28;20052;-75
2021/03/20 02:16:32;;;;;;;8.52;6.15;;;-1.90;99.90;;;;;;5045188;28;20436;-79
2021/03/20 02:19:12;;;;;;;12.45;6.60;;;-1.90;99.90;;;;;;5024318;28;20386;-75
2021/03/20 02:21:49;;;;;;;11.48;6.90;;;-1.90;99.90;;;;;;5025043;28;20120;-74
2021/03/20 02:24:52;;;;;;;10.13;6.80;;;-1.90;99.90;;;;;;5050384;28;20486;-78
2021/03/20 02:27:37;;;;;;;11.23;6.70;;;-2.00;99.90;;;;;;5027671;28;20029;-81
2021/03/20 02:30:32;;;;;;;11.93;7.32;;;-2.00;99.90;;;;;;5050421;28;20584;-74
2021/03/20 02:33:27;;;;;;;13.50;7.63;;;-2.00;99.90;;;;;;5015836;28;20049;-79
2021/03/20 02:36:11;;;;;;;10.88;7.35;;;-2.00;99.90;;;;;;4980137;28;20496;-78
2021/03/20 02:38:45;;;;;;;13.63;6.97;;;-2.10;99.90;;;;;;5041382;28;20128;-75
2021/03/20 02:41:29;;;;;;;10.90;6.65;;;-2.10;99.90;;;;;;5038672;28;20092;-76
2021/03/20 02:44:00;;;;;;;14.05;7.03;;;-2.10;99.90;;;;;;5040617;28;20117;-74
2021/03/20 02:46:26;;;;;;;9.65;6.80;;;-2.10;99.90;;;;;;5026959;28;20143;-76
2021/03/20 02:49:00;;;;;;;14.10;7.20;;;-2.20;99.90;;;;;;5032878;28;20114;-76
2021/03/20 02:51:38;;;;;;;10.38;6.72;;;-2.20;99.90;;;;;;5041740;28;20048;-79
2021/03/20 02:54:13;;;;;;;13.23;6.93;;;-2.20;99.90;;;;;;5032328;28;20127;-73
2021/03/20 02:56:52;;;;;;;12.95;7.18;;;-2.20;99.90;;;;;;5043575;28;20155;-76
2021/03/20 02:59:19;;;;;;;11.00;7.45;;;-2.30;99.90;;;;;;5048844;28;20034;-78
2021/03/20 03:01:47;;;;;;;12.00;7.03;;;-2.30;99.90;;;;;;5047517;28;20175;-75
2021/03/20 03:04:16;;;;;;;14.55;7.45;;;-2.30;99.90;;;;;;5051071;28;20068;-75
2021/03/20 03:07:14;;;;;;;12.82;7.80;;;-2.30;99.90;;;;;;5051745;28;20151;-76
2021/03/20 03:10:01;;;;;;;9.20;6.55;;;-2.30;99.90;;;;;;5029138;28;20560;-72
2021/03/20 03:13:02;;;;;;;11.63;7.35;;;-2.40;99.90;;;;;;5042332;28;20041;-74
2021/03/20 03:15:34;;;;;;;16.08;7.90;;;-2.40;99.90;;;;;;5050396;28;20051;-75
2021/03/20 03:18:23;;;;;;;10.00;6.75;;;-2.40;99.90;;;;;;5031950;28;20041;-78
2021/03/20 03:20:54;;;;;;;14.80;8.73;;;-2.30;99.90;;;;;;5038670;28;20045;-76
2021/03/20 03:23:26;;;;;;;9.50;6.07;;;-2.30;99.90;;;;;;5038526;28;20036;-74
2021/03/20 03:26:19;;;;;;;11.75;7.63;;;-2.20;99.90;;;;;;5036152;28;20049;-78
2021/03/20 03:28:53;;;;;;;12.20;6.65;;;-2.10;99.90;;;;;;5040476;28;20061;-77
2021/03/20 03:31:36;;;;;;;12.43;7.45;;;-2.00;99.90;;;;;;5050917;28;20053;-75
2021/03/20 03:34:08;;;;;;;11.60;6.68;;;-1.90;99.90;;;;;;5034884;28;20041;-74
2021/03/20 03:36:49;;;;;;;10.93;7.00;;;-1.80;99.90;;;;;;5043517;28;20084;-75
2021/03/20 03:39:50;;;;;;;8.95;6.80;;;-1.80;99.90;;;;;;5037429;28;20387;-77
2021/03/20 03:42:18;;;;;;;11.50;6.95;;;-1.70;99.90;;;;;;5025143;28;20049;-76
2021/03/20 03:44:51;;;;;;;11.77;7.75;;;-1.70;99.90;;;;;;5037194;28;20267;-78
2021/03/20 03:47:26;;;;;;;10.05;6.40;;;-1.60;99.90;;;;;;5039586;28;20064;-76
2021/03/20 03:49:58;;;;;;;8.48;5.75;;;-1.50;99.90;;;;;;5019313;28;20116;-76
2021/03/20 03:52:24;;;;;;;11.73;6.43;;;-1.50;99.90;;;;;;5051124;28;20045;-77
2021/03/20 03:54:50;;;;;;;8.23;5.90;;;-1.40;99.90;;;;;;5047514;28;20059;-76
2021/03/20 03:57:19;;;;;;;;;;;-1.30;99.90;;;;;;5048314;28;20030;-78
2021/03/20 04:00:06;;;;;;;12.13;6.05;;;-1.30;99.90;;;;;;5044088;28;19917;-79
2021/03/20 04:02:51;;;;;;;10.50;6.22;;;-1.20;99.90;;;;;;5042707;28;20051;-77
2021/03/20 04:05:30;;;;;;;10.40;5.93;;;-1.10;99.90;;;;;;5043218;28;20500;-78
2021/03/20 04:08:29;;;;;;;10.15;6.15;;;-1.00;99.90;;;;;;5048057;28;20048;-76
2021/03/20 04:11:26;;;;;;;8.23;5.75;;;-1.00;99.90;;;;;;5040881;28;20041;-78
2021/03/20 04:14:09;;;;;;;8.30;5.30;;;-0.90;99.90;;;;;;5051718;28;20049;-76
2021/03/20 04:16:50;;;;;;;7.78;5.38;;;-0.80;99.90;;;;;;5047840;28;20049;-76
2021/03/20 04:19:28;;;;;;;9.05;5.90;;;-0.70;99.90;;;;;;5045702;28;20052;-75
2021/03/20 04:22:10;;;;;;;9.20;6.20;;;-0.70;99.90;;;;;;5040630;28;20035;-76
2021/03/20 04:24:44;;;;;;;9.27;6.10;;;-0.60;99.90;;;;;;5031761;28;20438;-76
2021/03/20 04:27:14;;;;;;;7.57;5.43;;;-0.60;99.90;;;;;;5042247;28;20051;-77
2021/03/20 04:30:03;;;;;;;8.15;5.38;;;-0.50;99.90;;;;;;5050841;28;20044;-76
2021/03/20 04:32:34;;;;;;;9.68;5.07;;;-0.40;99.90;;;;;;5048078;28;20496;-80
2021/03/20 04:35:12;;;;;;;9.10;5.55;;;-0.40;99.90;;;;;;5048594;28;20048;-79
2021/03/20 04:37:47;;;;;;;9.05;5.50;;;-0.30;99.90;;;;;;5048557;28;20059;-77
2021/03/20 04:40:32;;;;;;;9.13;5.97;;;-0.30;99.90;;;;;;5044320;28;20084;-74
2021/03/20 04:42:58;;;;;;;6.90;5.53;;;-0.30;99.90;;;;;;5050800;28;20500;-74
2021/03/20 04:45:48;;;;;;;9.68;5.95;;;-0.40;99.90;;;;;;5043423;28;20038;-75
2021/03/20 04:48:31;;;;;;;10.38;6.10;;;-0.30;99.90;;;;;;5051625;28;20045;-76
2021/03/20 04:51:03;;;;;;;9.57;6.72;;;-0.40;99.90;;;;;;5045204;28;20033;-74
2021/03/20 04:53:28;;;;;;;9.05;6.38;;;-0.30;99.90;;;;;;5039595;28;20076;-76
2021/03/20 04:56:05;;;;;;;13.82;6.28;;;-0.20;99.90;;;;;;5006649;28;20069;-75
2021/03/20 04:58:48;;;;;;;9.55;6.45;;;-0.20;99.90;;;;;;5037467;28;20033;-78
2021/03/20 05:01:25;;;;;;;8.63;6.22;;;-0.10;99.90;;;;;;5040182;28;20091;-74
2021/03/20 05:03:59;;;;;;;10.52;6.95;;;0.00;99.90;;;;;;5050935;28;20037;-78
2021/03/20 05:06:27;;;;;;;8.50;6.18;;;0.10;99.90;;;;;;5048599;28;20863;-77
2021/03/20 05:08:55;;;;;;;10.65;6.50;;;0.10;99.90;;;;;;5026929;28;20039;-77
2021/03/20 05:11:44;;;;;;;9.93;7.05;;;0.10;99.90;;;;;;5049363;28;20110;-73
2021/03/20 05:14:10;;;;;;;9.52;7.47;;;0.00;99.90;;;;;;5037641;28;20057;-74
2021/03/20 05:16:36;;;;;;;;;;;0.00;99.90;;;;;;5041389;28;20041;-75
2021/03/20 05:19:03;;;;;;;10.00;6.55;;;0.00;99.90;;;;;;5041724;28;20011;-77
2021/03/20 05:21:33;;;;;;;11.10;7.30;;;0.00;99.90;;;;;;5020240;28;20114;-73
2021/03/20 05:24:00;;;;;;;10.48;6.97;;;0.10;99.90;;;;;;5041082;28;20041;-77
2021/03/20 05:26:28;;;;;;;9.07;7.28;;;0.10;99.90;;;;;;5045229;28;20135;-74
2021/03/20 05:28:54;;;;;;;12.25;7.10;;;0.20;99.90;;;;;;5050542;28;20230;-74
2021/03/20 05:31:20;;;;;;;10.85;7.57;;;0.20;99.90;;;;;;5050746;28;20175;-79
2021/03/20 05:33:48;;;;;;;9.85;7.00;;;0.20;99.90;;;;;;5045283;28;20037;-75
2021/03/20 05:36:14;;;;;;;8.98;7.40;;;0.30;99.90;;;;;;5035997;28;20053;-79
2021/03/20 05:38:42;;;;;;;9.75;7.22;;;0.30;99.90;;;;;;5041514;28;20123;-77
2021/03/20 05:41:30;;;;;;;10.75;7.25;;;0.30;99.90;;;;;;5032258;28;20045;-74
2021/03/20 05:44:28;;;;;;;10.23;7.38;;;0.30;99.90;;;;;;5044537;28;20098;-76
2021/03/20 05:47:06;;;;;;;9.63;7.22;;;0.30;99.90;;;;;;5032112;28;20401;-81
2021/03/20 05:49:44;;;;;;;10.40;6.63;;;0.40;99.90;;;;;;5032380;28;20108;-76
2021/03/20 05:52:25;;;;;;;9.02;6.00;;;0.40;99.90;;;;;;5041091;28;20041;-80
2021/03/20 05:55:09;;;;;;;11.23;7.05;;;0.40;99.90;;;;;;5016962;28;20037;-73
2021/03/20 05:57:54;;;;;;;11.88;6.10;;;0.50;99.90;;;;;;5021407;28;20512;-76
2021/03/20 06:00:42;;;;;;;9.40;5.47;;;0.50;99.90;;;;;;5031395;28;20502;-81
2021/03/20 06:03:26;;;;;;;8.30;5.70;;;0.50;99.90;;;;;;5050363;28;20043;-79
2021/03/20 06:05:55;;;;;;;8.50;6.18;;;0.50;99.90;;;;;;5045643;28;20102;-75
2021/03/20 06:08:33;;;;;;;7.40;5.45;;;0.50;99.90;;;;;;5041311;28;20053;-77
2021/03/20 06:11:35;;;;;;;7.93;5.63;;;0.60;99.90;;;;;;5032695;28;20123;-78
2021/03/20 06:14:19;;;;;;;9.40;6.30;;;0.60;99.90;;;;;;5036604;28;20056;-78
2021/03/20 06:16:55;;;;;;;6.90;5.90;;;0.60;99.90;;;;;;5048188;28;20037;-74
2021/03/20 06:19:33;;;;;;;7.07;5.35;;;0.60;99.90;;;;;;5018864;28;20045;-76
2021/03/20 06:22:34;;;;;;;7.22;5.07;;;0.60;99.90;;;;;;5042353;28;20060;-80
2021/03/20 06:25:20;;;;;;;8.68;6.00;;;0.70;99.90;;;;;;5000886;28;20120;-73
2021/03/20 06:27:51;;;;;;;7.78;5.80;;;0.70;99.90;;;;;;5045527;28;20084;-76
2021/03/20 06:30:40;;;;;;;8.20;6.43;;;0.70;99.90;;;;;;5029313;28;20110;-75
2021/03/20 06:33:18;;;;;;;8.43;5.97;;;0.80;99.90;;;;;;5032470;28;20057;-76
2021/03/20 06:35:50;;;;;;;11.60;7.03;;;0.80;99.90;;;;;;5037909;28;20044;-77
2021/03/20 06:38:27;;;;;;;9.07;7.05;;;0.80;99.90;;;;;;5052204;28;20029;-74
2021/03/20 06:41:16;;;;;;;10.85;6.45;;;0.80;99.90;;;;;;5049976;28;20063;-75
2021/03/20 06:43:52;;;;;;;11.73;6.57;;;0.90;99.90;;;;;;5026606;28;20060;-79
2021/03/20 06:46:22;;;;;;;8.30;6.80;;;0.90;99.90;;;;;;5050697;28;20048;-74
2021/03/20 06:48:48;;;;;;;10.63;6.85;;;0.90;99.90;;;;;;5046327;28;20029;-78
2021/03/20 06:51:14;;;;;;;;;;;1.00;99.90;;;;;;5052851;28;20037;-79
2021/03/20 06:53:49;;;;;;;8.77;6.88;;;1.00;99.90;;;;;;5052860;28;19943;-79
2021/03/20 06:56:17;;;;;;;9.45;7.05;;;1.00;99.90;;;;;;5040419;28;20049;-73
2021/03/20 06:58:43;;;;;;;10.93;7.50;;;1.00;99.90;;;;;;5045964;28;20040;-79
2021/03/20 07:02:05;;;;;;;10.52;7.45;;;1.00;99.90;;;;;;5054164;28;20037;-79
2021/03/20 07:04:39;;;;;;;8.27;6.25;;;1.10;99.90;;;;;;4975674;28;20049;-78
2021/03/20 07:07:49;;;;;;;11.20;7.97;;;1.10;99.90;;;;;;5032354;28;20049;-75
2021/03/20 07:10:32;;;;;;;10.63;7.82;;;1.20;99.90;;;;;;5013286;28;20057;-81
2021/03/20 07:13:26;;;;;;;11.75;8.40;;;1.30;99.90;;;;;;5045584;28;20041;-74
2021/03/20 07:16:05;;;;;;;9.57;7.68;;;1.30;99.90;;;;;;5048661;28;20123;-75
2021/03/20 07:19:06;;;;;;;14.98;8.00;;;1.30;99.90;;;;;;5050375;28;20053;-78
2021/03/20 07:21:36;;;;;;;11.68;7.28;;;1.30;99.90;;;;;;5002225;28;20107;-76
2021/03/20 07:24:10;;;;;;;11.68;8.00;;;1.30;99.90;;;;;;5044956;28;20470;-74
2021/03/20 07:26:53;;;;;;;11.90;7.28;;;1.40;99.90;;;;;;5046718;28;20401;-74
2021/03/20 07:29:35;;;;;;;12.60;7.72;;;1.50;99.90;;;;;;5051327;28;20029;-74
2021/03/20 07:32:01;;;;;;;11.02;7.78;;;1.50;99.90;;;;;;5029725;28;20041;-74
2021/03/20 07:34:31;;;;;;;13.38;7.47;;;1.60;99.90;;;;;;5026297;28;20056;-75
2021/03/20 07:37:08;;;;;;;9.48;6.70;;;1.70;99.90;;;;;;5043456;28;20033;-78
2021/03/20 07:39:41;;;;;;;13.90;6.82;;;1.80;99.90;;;;;;5034567;28;20037;-77
2021/03/20 07:42:42;;;;;;;11.90;7.28;;;1.90;99.90;;;;;;5047006;28;20112;-76
2021/03/20 07:45:28;;;;;;;13.23;7.55;;;2.10;99.90;;;;;;5003256;28;20072;-74
2021/03/20 07:47:54;;;;;;;11.52;7.30;;;2.20;99.90;;;;;;5030711;28;20191;-75
2021/03/20 07:50:20;;;;;;;11.63;7.78;;;2.30;99.90;;;;;;5032644;28;20123;-72
2021/03/20 07:53:10;;;;;;;11.13;7.63;;;2.50;99.90;;;;;;5052609;28;20041;-77
2021/03/20 07:56:00;;;;;;;8.73;6.22;;;2.70;99.90;;;;;;5046848;28;20037;-76
2021/03/20 07:58:43;;;;;;;9.93;7.25;;;2.80;99.90;;;;;;5033186;28;20474;-76
2021/03/20 08:01:20;;;;;;;10.27;6.20;;;2.80;99.90;;;;;;5041773;28;20041;-75
2021/03/20 08:03:58;;;;;;;9.85;7.05;;;2.90;99.90;;;;;;5037872;28;20463;-77
2021/03/20 08:06:40;;;;;;;8.02;6.05;;;3.00;99.90;;;;;;5038909;28;20045;-76
2021/03/20 08:09:18;;;;;;;9.02;6.57;;;3.20;99.90;;;;;;5049838;28;20095;-74
2021/03/20 08:12:05;;;;;;;8.20;5.93;;;3.40;99.90;;;;;;5049408;28;20057;-77
2021/03/20 08:14:45;;;;;;;8.35;5.38;;;3.60;99.90;;;;;;5042263;28;20037;-80
2021/03/20 08:17:15;;;;;;;8.73;6.03;;;3.80;99.90;;;;;;5035501;28;20061;-76
2021/03/20 08:19:41;;;;;;;8.88;6.07;;;3.90;99.90;;;;;;5038637;28;20112;-75
2021/03/20 08:22:32;;;;;;;7.57;5.68;;;4.00;99.90;;;;;;5052546;28;20033;-75
2021/03/20 08:25:32;;;;;;;7.80;5.32;;;4.10;99.90;;;;;;5047875;28;20045;-76
2021/03/20 08:28:18;;;;;;;9.30;5.75;;;4.20;99.90;;;;;;5042709;28;20372;-76
2021/03/20 08:30:49;;;;;;;6.65;5.05;;;4.20;99.90;;;;;;5026721;28;20085;-81
2021/03/20 08:33:56;;;;;;;8.38;6.20;;;4.30;99.90;;;;;;5031204;28;20037;-82
2021/03/20 08:36:34;;;;;;;7.07;5.68;;;4.40;99.90;;;;;;5027772;28;20149;-73
2021/03/20 08:39:21;;;;;;;7.65;5.57;;;4.50;99.90;;;;;;5043117;28;20060;-78
2021/03/20 08:42:12;;;;;;;8.07;5.75;;;4.60;99.90;;;;;;5024247;28;20064;-76
2021/03/20 08:44:58;;;;;;;9.57;5.75;;;4.60;99.90;;;;;;5045699;28;20032;-76
2021/03/20 08:48:01;;;;;;;8.43;6.18;;;4.70;99.90;;;;;;5031116;28;20055;-80
2021/03/20 08:50:41;;;;;;;9.35;5.20;;;4.70;99.90;;;;;;5023259;28;20049;-75
2021/03/20 08:53:11;;;;;;;12.40;6.55;;;4.70;99.90;;;;;;5047436;28;20041;-75
2021/03/20 08:56:02;;;;;;;8.88;5.80;;;4.70;99.90;;;;;;5052241;28;20501;-75
2021/03/20 08:58:59;;;;;;;8.52;5.78;;;4.80;99.90;;;;;;5039583;28;20038;-75
2021/03/20 09:01:51;;;;;;;;;;;4.90;99.90;;;;;;5019199;28;20045;-77
2021/03/20 09:04:25;;;;;;;9.93;6.07;;;4.80;99.90;;;;;;5022724;28;20365;-77
2021/03/20 09:06:58;;;;;;;8.75;5.55;;;4.90;99.90;;;;;;5030624;28;20053;-78
2021/03/20 09:09:33;;;;;;;8.65;6.10;;;5.00;99.90;;;;;;5040486;28;20079;-75
2021/03/20 09:12:07;;;;;;;8.73;6.63;;;5.10;99.90;;;;;;5045705;28;20040;-77
2021/03/20 09:14:43;;;;;;;7.80;5.88;;;5.10;99.90;;;;;;5031703;28;20056;-77
2021/03/20 09:17:27;;;;;;;11.57;5.75;;;5.20;99.90;;;;;;5009514;28;20060;-84
2021/03/20 09:19:57;;;;;;;10.90;6.60;;;5.30;99.90;;;;;;5044222;28;20059;-79
2021/03/20 09:22:29;;;;;;;8.88;6.40;;;5.30;99.90;;;;;;5044601;28;20072;-80
2021/03/20 09:25:01;;;;;;;10.88;6.53;;;5.50;99.90;;;;;;5043596;28;20049;-77
2021/03/20 09:28:05;;;;;;;8.90;6.60;;;5.50;99.90;;;;;;5029439;28;20544;-86
2021/03/20 09:30:46;;;;;;;10.38;7.32;;;5.50;99.90;;;;;;5041671;28;20037;-77
2021/03/20 09:33:27;;;;;;;8.48;6.22;;;5.50;99.90;;;;;;5040276;28;20033;-79
2021/03/20 09:35:54;;;;;;;9.23;6.78;;;5.50;99.90;;;;;;5048341;28;20040;-76
2021/03/20 09:38:35;;;;;;;10.02;6.78;;;5.60;99.90;;;;;;5030885;28;20123;-78
2021/03/20 09:41:07;;;;;;;10.68;7.28;;;5.70;99.90;;;;;;5042529;28;20087;-74
2021/03/20 09:43:46;;;;;;;8.77;6.60;;;5.90;99.90;;;;;;5039918;28;20036;-76
2021/03/20 09:46:39;;;;;;;9.00;6.68;;;6.00;99.90;;;;;;5050726;28;20043;-75
2021/03/20 09:49:11;;;;;;;10.88;6.88;;;6.20;99.70;;;;;;5037898;28;20060;-74
2021/03/20 09:51:55;;;;;;;11.82;6.25;;;6.30;99.90;;;;;;5035981;28;20041;-77
2021/03/20 09:59:42;;;;;;;9.73;7.10;;;6.40;99.90;;;;;;5047203;28;20040;-77
2021/03/20 10:02:10;;;;;;;10.63;7.53;;;6.50;99.50;;;;;;5050732;28;20032;-78
2021/03/20 10:04:51;;;;;;;9.90;6.35;;;6.50;99.90;;;;;;5041287;28;20041;-75
2021/03/20 10:07:23;;;;;;;15.00;6.82;;;6.50;99.90;;;;;;5049722;28;20055;-76
2021/03/20 10:10:07;;;;;;;8.13;5.78;;;6.50;99.70;;;;;;5048349;28;20041;-77
2021/03/20 10:12:35;;;;;;;8.32;6.75;;;6.50;99.60;;;;;;5025023;28;20171;-75
2021/03/20 10:15:01;;;;;;;9.68;6.63;;;6.60;99.70;;;;;;5029549;28;20040;-77
2021/03/20 10:17:29;;;;;;;8.45;6.32;;;6.70;99.30;;;;;;5041278;28;20041;-77
2021/03/20 10:20:08;;;;;;;10.15;6.80;;;6.70;99.40;;;;;;5033593;28;20038;-74
2021/03/20 10:22:40;;;;;;;8.93;6.75;;;6.70;99.40;;;;;;5028082;28;20033;-74
2021/03/20 10:25:12;;;;;;;10.23;7.28;;;6.60;99.60;;;;;;5046592;28;20037;-76
2021/03/20 10:27:43;;;;;;;10.20;7.00;;;6.60;99.80;;;;;;5042628;28;20044;-76
2021/03/20 10:30:25;;;;;;;10.98;6.78;;;6.50;99.80;;;;;;5040500;28;20033;-75
2021/03/20 10:32:59;;;;;;;10.27;6.93;;;6.40;99.90;;;;;;5036754;28;20128;-77
2021/03/20 10:35:26;;;;;;;12.07;7.07;;;6.50;99.90;;;;;;5031053;28;20044;-78
2021/03/20 10:37:53;;;;;;;9.23;6.75;;;6.50;99.90;;;;;;5045207;28;20037;-76
2021/03/20 10:40:27;;;;;;;9.27;6.25;;;6.50;99.90;;;;;;5045275;28;20052;-76
2021/03/20 10:43:00;;;;;;;10.05;5.95;;;6.60;99.80;;;;;;5062423;28;20061;-78
2021/03/20 10:45:33;;;;;;;9.57;6.72;;;6.70;99.90;;;;;;5035057;28;20115;-79
2021/03/20 10:48:02;;;;;;;10.85;8.10;;;6.80;99.50;;;;;;5048397;28;20033;-78
2021/03/20 10:50:35;;;;;;;12.18;7.63;;;6.90;99.30;;;;;;5044511;28;20041;-78
2021/03/20 10:53:25;;;;;;;10.02;7.30;;;6.80;99.80;;;;;;5045175;28;20041;-76
2021/03/20 10:55:56;;;;;;;8.80;6.20;;;6.90;99.50;;;;;;5048644;28;20037;-76
2021/03/20 10:58:42;;;;;;;10.60;7.15;;;6.90;99.60;;;;;;5038577;28;20051;-76
2021/03/20 11:01:15;;;;;;;9.07;7.10;;;6.90;99.30;;;;;;5042471;28;20037;-75
2021/03/20 11:03:46;;;;;;;12.15;8.10;;;6.90;99.20;;;;;;5019539;28;20398;-76
2021/03/20 11:06:21;;;;;;;8.30;5.90;;;7.00;99.30;;;;;;5048154;28;20040;-78
2021/03/20 11:09:08;;;;;;;10.63;5.95;;;7.10;98.50;;;;;;5030142;28;20044;-74
2021/03/20 11:11:37;;;;;;;8.90;6.32;;;7.10;98.10;;;;;;5047112;28;20033;-75
2021/03/20 11:14:08;;;;;;;9.73;6.53;;;7.10;98.10;;;;;;5028495;28;20048;-74
2021/03/20 11:17:10;;;;;;;8.23;5.70;;;7.00;98.00;;;;;;5025487;28;20069;-79
2021/03/20 11:19:40;;;;;;;9.02;5.60;;;7.20;98.40;;;;;;5008506;28;20065;-75
2021/03/20 11:22:25;;;;;;;8.73;5.95;;;7.30;98.00;;;;;;5038732;28;20041;-77
2021/03/20 11:24:58;;;;;;;11.80;6.00;;;7.40;98.20;;;;;;5034237;28;20052;-78
2021/03/20 11:27:25;;;;;;;10.38;6.30;;;7.60;97.70;;;;;;5045755;28;20110;-76
2021/03/20 11:29:59;;;;;;;9.10;6.15;;;8.00;97.60;;;;;;5024647;28;20029;-77
2021/03/20 11:32:34;;;;;;;8.07;6.13;;;7.70;96.70;;;;;;5052497;28;20072;-75
2021/03/20 11:35:24;;;;;;;13.43;5.57;;;7.60;96.50;;;;;;5050887;28;20068;-77
2021/03/20 11:37:50;;;;;;;8.45;6.00;;;7.50;96.60;;;;;;5039167;28;20029;-74
2021/03/20 11:40:36;;;;;;;9.98;5.90;;;7.40;97.20;;;;;;5039643;28;20045;-77
2021/03/20 11:43:05;;;;;;;6.88;5.95;;;7.30;97.70;;;;;;5046083;28;20529;-77
2021/03/20 11:45:36;;;;;;;12.50;6.90;;;7.30;97.10;;;;;;5050830;28;20036;-78
2021/03/20 11:48:17;;;;;;;8.30;5.30;;;7.20;97.00;;;;;;5051210;28;20575;-79
2021/03/20 11:50:50;;;;;;;8.65;5.80;;;7.20;97.40;;;;;;5050721;28;20430;-74
2021/03/20 11:53:42;;;;;;;10.45;5.93;;;7.20;97.90;;;;;;5020007;28;20441;-75
2021/03/20 11:56:17;;;;;;;8.02;5.07;;;7.20;97.90;;;;;;5031854;28;20033;-78
2021/03/20 11:58:52;;;;;;;7.03;5.72;;;7.20;97.80;;;;;;5032171;28;20095;-74
2021/03/20 12:01:32;;;;;;;7.00;5.18;;;7.20;98.00;;;;;;5049004;28;20056;-74
2021/03/20 12:04:20;;;;;;;6.95;5.13;;;7.10;98.60;;;;;;5050333;28;20040;-77
2021/03/20 12:06:46;;;;;;;6.65;5.53;;;7.20;99.20;;;;;;5040237;28;20083;-74
2021/03/20 12:09:21;;;;;;;7.20;5.43;;;7.10;99.40;;;;;;5030458;28;20049;-74
2021/03/20 12:11:49;;;;;;;9.13;6.00;;;7.00;99.90;;;;;;5023273;28;20034;-75
2021/03/20 12:14:30;;;;;;;8.82;5.90;;;6.90;99.90;;;;;;5020436;28;20056;-76
2021/03/20 12:17:11;;;;;;;7.25;5.40;;;6.80;99.90;;;;;;5031526;28;20045;-74
2021/03/20 12:19:57;;;;;;;6.72;5.18;;;6.70;99.90;;;;;;5020210;28;20043;-77
2021/03/20 12:22:27;;;;;;;10.05;5.53;;;6.70;99.90;;;;;;5042085;28;20064;-77
2021/03/20 12:25:01;;;;;;;7.43;4.93;;;6.70;99.90;;;;;;5030280;28;20490;-77
2021/03/20 12:27:36;;;;;;;8.98;5.20;;;6.80;99.90;;;;;;5029491;28;20037;-75
2021/03/20 12:30:26;;;;;;;9.93;5.45;;;7.00;99.90;;;;;;5023408;28;20041;-76
2021/03/20 12:32:54;;;;;;;9.13;5.97;;;7.00;99.90;;;;;;5023941;28;20550;-78
2021/03/20 12:35:20;;;;;;;7.68;5.22;;;7.10;99.90;;;;;;5023865;28;20053;-76
2021/03/20 12:38:09;;;;;;;8.85;5.60;;;7.10;99.90;;;;;;5028250;28;20038;-79
2021/03/20 12:40:35;;;;;;;8.70;5.60;;;7.00;99.90;;;;;;5015815;28;20061;-75
2021/03/20 12:43:02;;;;;;;;;;;6.90;99.90;;;;;;5033065;28;20136;-77
2021/03/20 12:45:33;;;;;;;8.55;6.50;;;6.90;99.90;;;;;;5030648;28;19924;-74
2021/03/20 12:47:59;;;;;;;7.93;6.47;;;6.90;99.90;;;;;;5030315;28;20038;-76
2021/03/20 12:50:25;;;;;;;9.07;6.80;;;6.70;99.90;;;;;;5017152;28;20052;-76
2021/03/20 12:52:51;;;;;;;10.45;7.53;;;6.50;99.90;;;;;;5046933;28;20034;-75
2021/03/20 12:55:17;;;;;;;;;;;6.40;99.90;;;;;;5030341;28;20128;-76
2021/03/20 12:57:42;;;;;;;11.75;8.63;;;6.30;99.90;;;;;;5029040;28;20458;-74
2021/03/20 13:00:21;;;;;;;11.25;8.35;;;6.30;99.90;;;;;;5031590;28;20033;-74
2021/03/20 13:02:47;;;;;;;14.32;9.50;;;6.10;99.90;;;;;;5030415;28;20037;-74
2021/03/20 13:05:31;;;;;;;13.13;8.73;;;6.10;99.90;;;;;;5029490;28;20037;-76
2021/03/20 13:07:57;;;;;;;12.00;8.18;;;6.10;99.90;;;;;;5025055;28;20049;-77
2021/03/20 13:10:24;;;;;;;11.13;7.90;;;6.10;99.90;;;;;;5030855;28;20042;-80
2021/03/20 13:12:52;;;;;;;11.93;8.63;;;6.10;99.90;;;;;;5029263;28;20100;-81
2021/03/20 13:15:20;;;;;;;10.93;7.82;;;6.10;99.90;;;;;;5024200;28;20068;-81
2021/03/20 13:17:47;;;;;;;10.48;7.75;;;6.00;99.90;;;;;;5024574;28;20041;-77
2021/03/20 13:20:14;;;;;;;10.98;7.95;;;6.00;99.90;;;;;;5029138;28;20470;-81
2021/03/20 13:22:41;;;;;;;9.73;7.28;;;6.00;99.90;;;;;;5029347;28;20047;-76
2021/03/20 13:25:07;;;;;;;11.00;7.32;;;6.10;99.90;;;;;;5029970;28;20049;-75
2021/03/20 13:27:33;;;;;;;11.23;7.72;;;6.10;99.90;;;;;;5034448;28;20411;-79
2021/03/20 13:30:00;;;;;;;12.07;8.60;;;6.10;99.90;;;;;;5037831;28;20484;-75
2021/03/20 13:32:25;;;;;;;13.40;8.82;;;6.10;99.90;;;;;;5027909;28;20042;-76
2021/03/20 13:34:52;;;;;;;9.40;7.15;;;6.10;99.90;;;;;;5037944;28;20037;-77
2021/03/20 13:37:18;;;;;;;10.68;6.78;;;6.10;99.90;;;;;;5019354;28;20411;-75
2021/03/20 13:39:44;;;;;;;10.77;6.15;;;6.10;99.90;;;;;;5019087;28;20111;-80